Tiempo atmosférico en la estación meteorológica de Calatayud, Zaragoza (600 m.)



Fecha
DESCASC
Temp. máxima en grados centígrados (hora)
DESCASC
Temp. mínima en grados centígrados (hora)
DESCASC
Temp. media en grados centígrados
DESCASC
Racha de viento máxima en m/sg (hora)
DESCASC
Velocidad máxima media en intervalos de 10 minutos(hora)
DESCASC
Precipitaciones diarias en mm
DESCASC
Precipitaciones de 00:00 a 06:00 en mm
DESCASC
Precipitaciones de 06:00 a 12:00 en mm
DESCASC
Precipitaciones de 12:00 a 18:00 en mm
DESCASC
Precipitaciones de 18:00 a 24:00 en mm
DESCASC
20-09-2020 23.9 (16:00) 13.8 (08:10) 18.8 11.67 (18:40) 6.67 (18:40) 7 0 0 0 7
19-09-2020 22.7 (16:50) 15.3 (07:30) 19 13.89 (15:50) 7.78 (15:30) 1.2 0.6 0.6 0 0
17-09-2020 29.8 (16:40) 17.7 (00:00) 23.8 7.5 (23:50) 3.89 (19:30) 0.2 0 0.2 0 0
16-09-2020 32.2 (17:00) 14.4 (08:40) 23.3 8.33 (15:50) 5.28 (17:10) 2.8 0 0 1.6 1.2
15-09-2020 31.8 (16:50) 16.9 (00:00) 24.3 9.72 (02:10) 5.28 (02:10) 0.6 0.2 0.4 0 0
14-09-2020 32 (17:30) 14.3 (00:00) 23.2 9.72 (16:40) 6.39 (17:20) 0 0 0 0 0
13-09-2020 33.7 (16:20) 13.4 (00:00) 23.6 9.17 (18:10) 5.83 (18:00) 0 0 0 0 0
12-09-2020 30.8 (16:10) 13.2 (08:20) 22 9.44 (20:00) 5.83 (18:30) 0 0 0 0 0
11-09-2020 31.2 (16:50) 10.6 (00:00) 20.9 8.89 (20:00) 6.11 (19:10) 0 0 0 0 0
10-09-2020 29.3 (17:00) 13.2 (00:00) 21.2 11.67 (17:20) 6.67 (17:30) 0 0 0 0 0
09-09-2020 29.7 (17:00) 11.7 (08:10) 20.7 7.78 (17:10) 5 (23:59) 0 0 0 0 0
08-09-2020 26.9 (17:20) 7.3 (00:00) 17.1 11.39 (17:40) 6.67 (18:40) 0 0 0 0 0
07-09-2020 24.1 (17:20) 9.8 (07:10) 17 12.22 (14:40) 8.33 (14:50) 0 0 0 0 0
06-09-2020 26.3 (16:00) 14.6 (00:00) 20.4 12.78 (18:20) 8.06 (16:50) 0 0 0 0 0
05-09-2020 30.4 (16:40) 14.3 (00:00) 22.3 11.67 (19:20) 7.5 (19:20) 0 0 0 0 0
04-09-2020 33.3 (16:10) 12.9 (00:00) 23.1 9.17 (17:30) 5.83 (17:40) 0 0 0 0 0
03-09-2020 32.7 (16:40) 10 (00:00) 21.4 9.17 (19:40) 6.11 (19:10) 0 0 0 0 0
02-09-2020 29 (17:10) 9.8 (00:00) 19.4 8.89 (20:00) 5.56 (19:10) 0 0 0 0 0
01-09-2020 27 (17:20) 11.5 (00:00) 19.3 9.17 (20:10) 5.83 (20:10) 0 0 0 0 0
31-08-2020 28.6 (18:30) 6.9 (00:00) 17.8 9.72 (20:30) 6.39 (19:40) 0 0 0 0 0
30-08-2020 23 (15:10) 9.5 (00:00) 16.3 9.72 (19:10) 6.11 (19:20) 0 0 0 0 0
29-08-2020 24.3 (17:00) 13 (00:00) 18.6 16.39 (18:20) 11.11 (18:20) 0 0 0 0 0
28-08-2020 30.6 (15:10) 17 (00:00) 23.8 15.83 (19:10) 10 (18:30) 0 0 0 0 0
27-08-2020 37.1 (16:30) 18.1 (00:00) 27.6 9.17 (18:00) 5.83 (16:50) 0 0 0 0 0
26-08-2020 35.3 (16:10) 16.9 (00:00) 26.1 11.11 (18:30) 7.5 (18:30) 0 0 0 0 0
25-08-2020 38.1 (18:10) 14.9 (00:00) 26.5 9.44 (19:10) 5.83 (19:10) 0 0 0 0 0
24-08-2020 30 (16:10) 13.6 (07:40) 21.8 9.44 (19:20) 6.11 (19:10) 0 0 0 0 0
23-08-2020 30.2 (16:30) 13.7 (00:00) 22 11.11 (20:20) 6.94 (19:50) 0 0 0 0 0

Gráficas

Temp. máximas Temp. mínimas Temp. medias Precipitaciones Rachas de viento máximas Velocidades máximas media en intervalos de 10 minutos

Datos horarios

Fecha y hora oficial Temperatura (ºC) Velocidad del viento (km/h) Dirección del viento Racha (km/h) Dirección de racha Precipitación (mm) Presión (hPa) Tendencia (hPa) Humedad (%)
2020-09-21 23:00:00 18 4 Este 8 Nordeste 0 949.9 1.1 61
2020-09-21 22:00:00 18.9 5 Nordeste 18 Este 0 949.7 1.1 58
2020-09-21 21:00:00 19.8 13 Nordeste 21 Este 0 949.1 0.4 56
2020-09-21 20:00:00 21 11 Nordeste 24 Nordeste 0 948.8 -0.2 53
2020-09-21 19:00:00 22.9 15 Nordeste 22 Nordeste 0 948.6 -0.7 44
2020-09-21 18:00:00 23 10 Nordeste 16 Nordeste 0 948.7 -1.2 46
2020-09-21 17:00:00 22.7 9 Nordeste 14 Nordeste 0 949 -1.3 49
2020-09-21 16:00:00 21.7 11 Este 19 Nordeste 0 949.3 -1.4 53
2020-09-21 15:00:00 20 12 Nordeste 26 Nordeste 0 949.9 -1.1 61
2020-09-21 14:00:00 21.9 8 Oeste 14 Sur 0 950.3 -0.7 56
2020-09-21 13:00:00 20.1 4 Noroeste 9 Oeste 0 950.7 0 65
2020-09-21 12:00:00 17.9 4 Sudoeste 9 Sur 0 951 0.4 80
2020-09-21 11:00:00 16.9 3 Norte 5 Norte 0 951 -- 82
2020-09-21 10:00:00 15.4 2 Oeste 7 Sur 0 950.7 -- 89
2020-09-21 09:00:00 14.3 2 Sudoeste 8 Nordeste 0 950.6 -- 91
2020-09-21 08:00:00 13.5 4 Sur 8 Sur 0 950.2 -- 91
2020-09-21 07:00:00 14 0 Calma 5 Sudeste 0 950 -- 90
2020-09-21 06:00:00 14.2 0 Calma 5 Sur 0 950 -- 90
2020-09-21 05:00:00 14.5 3 Sur 4 Sur 0 949.9 -- 90
2020-09-21 04:00:00 14.9 0 Calma 6 Nordeste 0 950 -- 90
2020-09-21 03:00:00 14.7 4 Sudoeste 5 Sudoeste 0 950.6 -- 90
2020-09-21 02:00:00 15 2 Sudoeste 4 Sur 0 950.6 -- 90
2020-09-21 01:00:00 15 3 Oeste 3 Oeste 0 950.5 -- 90
2020-09-21 00:00:00 15.1 3 Nordeste 6 Norte 0 950.5 -- 89
2020-09-20 23:00:00 15.4 4 Sur 10 Sur 0.2 950.5 -- 87
2020-09-20 22:00:00 16 3 Oeste 9 Sudeste 0.6 950.4 -- 85
2020-09-20 21:00:00 16.3 5 Sur 14 Noroeste 4.2 950.1 -- 84
2020-09-20 20:00:00 17.4 8 Oeste 17 Sudoeste 0.4 949.6 -- 78
2020-09-20 19:00:00 18.1 4 Oeste 42 Oeste 1.6 948.8 -- 76
2020-09-20 18:00:00 23.7 4 Sudoeste 15 Oeste 0 948 -- 45
2020-09-20 17:00:00 22.4 9 Noroeste 22 Noroeste 0 948.4 -- 53
2020-09-20 16:00:00 23.8 9 Oeste 19 Sudoeste 0 948.5 -- 43
2020-09-20 15:00:00 22.4 5 Oeste 36 Oeste 0 949.3 -- 54
2020-09-20 14:00:00 22.7 9 Oeste 18 Oeste 0 949.4 -- 48
2020-09-20 13:00:00 21.5 8 Oeste 18 Oeste 0 949.9 -- 55
2020-09-20 12:00:00 20.7 7 Sudoeste 18 Oeste 0 950.1 -- 57
2020-09-20 11:00:00 19.5 5 Sudoeste 12 Noroeste 0 950.2 -- 63
2020-09-20 10:00:00 16.7 5 Sudoeste 8 Sudeste 0 949.9 -- 72
2020-09-20 09:00:00 14.8 3 Nordeste 5 Nordeste 0 950 -- 79
2020-09-20 08:00:00 14.1 3 Sudoeste 12 Sur 0 949.7 -- 80
2020-09-20 07:00:00 14 9 Sur 13 Sur 0 949.7 -- 81
2020-09-20 06:00:00 14.7 3 Sur 8 Nordeste 0 949.7 -- 77
2020-09-20 05:00:00 15.2 2 Sudoeste 7 Oeste 0 949.8 -- 75
2020-09-20 04:00:00 15.4 2 Sur 12 Sudoeste 0 950 -- 74
2020-09-20 03:00:00 15 8 Sudoeste 14 Sudoeste 0 950 -- 75
2020-09-20 02:00:00 15.7 9 Sur 12 Sur 0 949.9 -- 73
2020-09-20 01:00:00 17 6 Sur 12 Sur 0 949.9 -- 68
2020-09-20 00:00:00 17.7 5 Sur 10 Sur 0 949.8 -- 66
2020-09-19 23:00:00 17.5 8 Sur 15 Sudoeste 0 949.5 -- 67
2020-09-19 22:00:00 17.9 7 Sur 27 Sudoeste 0 949 -- 64
2020-09-19 21:00:00 18.8 19 Sudoeste 32 Sudoeste 0 948.2 -- 60
2020-09-19 20:00:00 20 13 Sudoeste 26 Sudoeste 0 947.8 -- 54
2020-09-19 19:00:00 21.4 17 Oeste 40 Sudoeste 0 947.5 -- 51
2020-09-19 18:00:00 22.4 19 Sudoeste 42 Sudoeste 0 946.8 -- 46
2020-09-19 17:00:00 22.1 18 Sudoeste 44 Sudoeste 0 946.9 -- 47
2020-09-19 16:00:00 21.9 26 Sudoeste 50 Sudoeste 0 947.1 -- 49
2020-09-19 15:00:00 21.8 23 Sudoeste 44 Sudoeste 0 947.2 -- 48
2020-09-19 14:00:00 20.6 17 Sudoeste 39 Sudoeste 0 947.6 -- 51
2020-09-19 13:00:00 20 19 Sudoeste 41 Sudoeste 0 948.1 -- 53
2020-09-19 12:00:00 20.7 26 Sudoeste 41 Oeste 0.2 947.8 -- 53
2020-09-19 11:00:00 19.6 20 Sudoeste 35 Sudoeste 0 947.9 -- 59
2020-09-19 10:00:00 17 5 Sur 11 Nordeste 0 947.5 -- 81
2020-09-19 09:00:00 15.5 5 Sur 7 Sudeste 0 947.3 -- 87
2020-09-19 08:00:00 15.4 4 Nordeste 9 Sur 0 946.9 -- 87
2020-09-19 07:00:00 15.7 5 Sur 9 Sur 0.4 946.8 -- 84
2020-09-19 06:00:00 15.5 3 Sur 10 Sudeste 0.4 946.8 -- 83
2020-09-19 05:00:00 16 4 Oeste 14 Sur 0.2 947.1 -- 76
2020-09-19 04:00:00 16.3 5 Sur 13 Sur 0 947.3 -- 71
2020-09-19 03:00:00 16 3 Este 12 Nordeste 0 947.2 -- 74
2020-09-19 02:00:00 15.6 6 Nordeste 9 Norte 0 947.2 -- 81
2020-09-19 01:00:00 16.6 6 Norte 16 Sur 0 947.2 -- 78
2020-09-19 00:00:00 17.9 9 Sur 16 Sudeste 0 947.5 -- 70
2020-09-18 23:00:00 18.7 9 Sur 23 Sudeste 0 947.4 -- 68
2020-09-18 22:00:00 18.7 7 Sur 15 Sudeste 0 947.1 -- 74
2020-09-18 21:00:00 19.5 8 Sur 15 Sur 0 947.2 -- 69
2020-09-18 20:00:00 20.3 7 Sur 12 Nordeste 0 946.7 -- 61
2020-09-18 19:00:00 21.9 4 Sudeste 18 Sudeste 0 945.7 -- 51
2020-09-18 18:00:00 21.8 12 Sur 18 Sur 0 946 -- 51
2020-09-18 17:00:00 20.6 5 Sur 21 Este 0 946.3 -- 52
2020-09-18 16:00:00 19.9 9 Este 32 Sudoeste 0.2 946.8 -- 59
2020-09-18 15:00:00 19.4 18 Sudoeste 37 Sudoeste 1 947.5 -- 69
2020-09-18 14:00:00 24.7 8 Sudeste 25 Sudeste 0 946.5 -- 42
2020-09-18 13:00:00 24.3 13 Sudeste 28 Sur 0 947.2 -- 42
2020-09-18 12:00:00 22.5 19 Sur 32 Sur 0 947.4 -- 46
2020-09-18 11:00:00 21.3 21 Sur 35 Sudeste 0 947 -- 55
2020-09-18 10:00:00 21 10 Sudeste 19 Sudeste 0 946.7 -- 62
2020-09-18 09:00:00 20.5 6 Este 13 Este 0 946.3 -- 67
2020-09-18 08:00:00 20.6 5 Este 14 Sudeste 0 946 -- 65
2020-09-18 07:00:00 20.7 9 Sur 18 Sur 0 946.1 -- 64
2020-09-18 06:00:00 20.3 4 Sudeste 13 Nordeste 0 946.1 -- 65
2020-09-18 05:00:00 20.6 5 Norte 12 Norte 0 945.7 -- 64
2020-09-18 04:00:00 20.7 5 Oeste 16 Sur 0 946.3 -- 66
2020-09-18 03:00:00 21.1 5 Este 21 Nordeste 0 946.4 -- 65
2020-09-18 02:00:00 22 8 Nordeste 28 Sudeste 0 946.1 -- 59
2020-09-18 01:00:00 23.6 17 Sur 27 Sudeste 0 947.4 -- 49
2020-09-18 00:00:00 22.6 10 Sur 27 Sur 0 947.3 -- 49
2020-09-17 23:00:00 22 3 Noroeste 10 Sur 0 946.8 -- 50
2020-09-17 22:00:00 23.4 4 Este 12 Sudoeste 0 946.8 -- 45
2020-09-17 21:00:00 24.7 10 Sudoeste 17 Sudoeste 0 946.5 -- 41
2020-09-17 20:00:00 26 6 Sudoeste 27 Sudoeste 0 946.2 -- 38
2020-09-17 19:00:00 26.9 10 Sudoeste 22 Sudoeste 0 946 -- 34
2020-09-17 18:00:00 28.1 12 Sudoeste 21 Sudoeste 0 945.8 -- 31
2020-09-17 17:00:00 29.1 10 Sur 22 Sur 0 946 -- 28
2020-09-17 16:00:00 28.8 6 Nordeste 17 Nordeste 0 946.3 -- 30
2020-09-17 15:00:00 27.9 6 Norte 12 Oeste 0 946.9 -- 32
2020-09-17 14:00:00 27.5 5 Oeste 16 Noroeste 0 947.4 -- 35
2020-09-17 13:00:00 27.3 8 Norte 14 Norte 0 947.9 -- 34
2020-09-17 12:00:00 22.1 0 Calma 7 Norte 0 948.9 -- 66
2020-09-17 11:00:00 20.3 2 Oeste 6 Oeste 0 949.1 -- 69
2020-09-17 10:00:00 19.1 3 Norte 6 Oeste 0 949.2 -- 70
2020-09-17 09:00:00 18.3 3 Sudoeste 7 Sudoeste 0 949.2 -- 75
2020-09-17 08:00:00 18.7 4 Sur 8 Nordeste 0 949 -- 74
2020-09-17 07:00:00 18.6 4 Norte 8 Noroeste 0.2 949.1 -- 75
2020-09-17 06:00:00 18.2 4 Sudoeste 10 Sudoeste 0 949.3 -- 77
2020-09-17 05:00:00 19.5 3 Sudoeste 5 Sudoeste 0 949 -- 68
2020-09-17 04:00:00 19.7 2 Oeste 7 Sudoeste 0 949.5 -- 67
2020-09-17 03:00:00 19.7 3 Oeste 9 Oeste 0 949.8 -- 72
2020-09-17 02:00:00 20.1 2 Noroeste 6 Oeste 0 949.9 -- 72
2020-09-17 01:00:00 21.2 4 Nordeste 9 Nordeste 0 950.1 -- 62
2020-09-17 00:00:00 21.6 3 Norte 8 Sudoeste 0 950.1 -- 58
2020-09-16 23:00:00 22.5 7 Sur 11 Sur 0 949.9 -- 51
2020-09-16 22:00:00 23 2 Nordeste 11 Sur 0 949.7 -- 64
2020-09-16 21:00:00 24 5 Sudoeste 8 Sudoeste 0 949.4 -- 65
2020-09-16 20:00:00 24.8 3 Oeste 11 Sur 0 949.1 -- 68
2020-09-16 19:00:00 25.6 4 Sur 12 Norte 1.2 949 -- 63
2020-09-16 18:00:00 25.8 5 Noroeste 28 Nordeste 1.6 949.5 -- 52
2020-09-16 17:00:00 31.2 17 Nordeste 28 Nordeste 0 949.1 -- 25
2020-09-16 16:00:00 31.2 16 Norte 30 Nordeste 0 949.8 -- 24
2020-09-16 15:00:00 31.4 17 Norte 28 Nordeste 0 950.2 -- 25
2020-09-16 14:00:00 30 8 Nordeste 16 Nordeste 0 951.3 -- 30
2020-09-16 13:00:00 27.4 5 Noroeste 11 Noroeste 0 952.1 -- 36
2020-09-16 12:00:00 24 4 Oeste 9 Sudoeste 0 952.8 -- 45
2020-09-16 11:00:00 20.4 2 Noroeste 5 Oeste 0 953.3 -- 54
2020-09-16 10:00:00 16.9 3 Oeste 6 Oeste 0 953.8 -- 64
2020-09-16 09:00:00 14.5 4 Sudoeste 6 Sudoeste 0 953.8 -- 75
2020-09-16 08:00:00 14.8 2 Nordeste 4 Sur 0 953.4 -- 72
2020-09-16 07:00:00 15.4 2 Sudeste 4 Sudeste 0 953.2 -- 69
2020-09-16 06:00:00 15.9 2 Este 4 Nordeste 0 953.1 -- 68
2020-09-16 05:00:00 16.6 3 Sudeste 4 Sudeste 0 953.3 -- 66
2020-09-16 04:00:00 17.4 2 Oeste 8 Sur 0 953.2 -- 64
2020-09-16 03:00:00 18.5 3 Este 7 Sur 0 953.2 -- 60
2020-09-16 02:00:00 19.1 4 Sur 10 Sudoeste 0 953.3 -- 60
2020-09-16 01:00:00 20.1 3 Sur 8 Sudoeste 0 953.1 -- 57
2020-09-16 00:00:00 22.5 5 Sur 9 Sur 0 952.9 -- 47
2020-09-15 23:00:00 23.9 4 Nordeste 15 Sudeste 0 952.8 -- 42
2020-09-15 22:00:00 25.4 6 Nordeste 23 Sur 0 952.5 -- 38
2020-09-15 21:00:00 26.3 9 Sudoeste 19 Sudeste 0 951.7 -- 38
2020-09-15 20:00:00 28.9 2 Sur 5 Sur 0 951.1 -- 29
2020-09-15 19:00:00 29.5 4 Sudoeste 16 Sur 0 951 -- 28
2020-09-15 18:00:00 30.9 9 Sur 22 Sudeste 0 951.1 -- 27
2020-09-15 17:00:00 30.6 3 Oeste 16 Oeste 0 951.5 -- 26
2020-09-15 16:00:00 30.7 8 Oeste 18 Noroeste 0 952 -- 27
2020-09-15 15:00:00 29.4 6 Oeste 13 Oeste 0 952.8 -- 29
2020-09-15 14:00:00 29 5 Este 14 Sur 0 953.4 -- 29
2020-09-15 13:00:00 27.2 6 Sur 17 Sur 0 954.2 -- 35
2020-09-15 12:00:00 24.3 4 Sudoeste 13 Sudoeste 0 955.3 -- 44
2020-09-15 11:00:00 21.1 5 Sur 10 Sudeste 0 955.5 -- 58
2020-09-15 10:00:00 18.7 4 Oeste 7 Oeste 0 955.7 -- 76
2020-09-15 09:00:00 17.2 2 Sur 6 Nordeste 0.4 955.1 -- 82
2020-09-15 08:00:00 16.9 6 Nordeste 8 Nordeste 0 954.6 -- 79
2020-09-15 07:00:00 18.1 4 Sudeste 9 Sur 0 954.1 -- 73
2020-09-15 06:00:00 18.5 4 Sudoeste 8 Oeste 0 954.1 -- 73
2020-09-15 05:00:00 19.2 3 Sudeste 9 Sur 0 954.1 -- 69
2020-09-15 04:00:00 19.3 5 Sur 25 Sur 0 953.7 -- 67
2020-09-15 03:00:00 20.6 10 Sur 35 Sudeste 0.2 953.3 -- 59
2020-09-15 02:00:00 22.1 16 Sur 31 Sur 0 953.8 -- 51
2020-09-15 01:00:00 23.4 2 Este 14 Sudeste 0 953.3 -- 43
2020-09-15 00:00:00 23.4 2 Oeste 6 Este 0 952.9 -- 45
2020-09-14 23:00:00 23.6 4 Oeste 12 Oeste 0 952.7 -- 45
2020-09-14 22:00:00 25.5 4 Norte 10 Nordeste 0 952.8 -- 37
2020-09-14 21:00:00 27.3 11 Este 22 Este 0 952.4 -- 31
2020-09-14 20:00:00 28.5 10 Este 23 Este 0 951.9 -- 28
2020-09-14 19:00:00 29.4 16 Nordeste 32 Nordeste 0 951.8 -- 24
2020-09-14 18:00:00 30.2 17 Nordeste 33 Nordeste 0 951.8 -- 22
2020-09-14 17:00:00 31.2 22 Nordeste 35 Nordeste 0 952.3 -- 22
2020-09-14 16:00:00 29.9 20 Nordeste 30 Nordeste 0 953 -- 24
2020-09-14 15:00:00 30 20 Nordeste 30 Nordeste 0 953.5 -- 24
2020-09-14 14:00:00 31.1 8 Norte 14 Norte 0 954.1 -- 21
2020-09-14 13:00:00 28.4 5 Noroeste 10 Nordeste 0 955.1 -- 28
2020-09-14 12:00:00 25.3 3 Oeste 9 Oeste 0 955.8 -- 35
2020-09-14 11:00:00 21 4 Oeste 8 Oeste 0 956.1 -- 45
2020-09-14 10:00:00 16.9 2 Noroeste 5 Sudoeste 0 956.4 -- 55
2020-09-14 09:00:00 14.8 4 Oeste 4 Oeste 0 956.3 -- 61
2020-09-14 08:00:00 14.4 0 Calma 6 Nordeste 0 955.9 -- 63
2020-09-14 07:00:00 15.4 3 Este 6 Sudoeste 0 955.7 -- 60
2020-09-14 06:00:00 15.9 3 Noroeste 8 Nordeste 0 955.6 -- 59
2020-09-14 05:00:00 16.7 4 Oeste 8 Oeste 0 955.7 -- 56
2020-09-14 04:00:00 18.6 3 Sur 9 Oeste 0 955.8 -- 49
2020-09-14 03:00:00 19.1 5 Oeste 10 Oeste 0 955.7 -- 47
2020-09-14 02:00:00 21.4 6 Noroeste 10 Norte 0 955.6 -- 42
2020-09-14 01:00:00 23.2 3 Norte 13 Sudoeste 0 955.5 -- 36
2020-09-14 00:00:00 23.9 6 Norte 18 Este 0 955.2 -- 34
2020-09-13 23:00:00 25.2 5 Este 18 Nordeste 0 954.9 -- 30
2020-09-13 22:00:00 26.6 3 Sur 9 Sur 0 954.6 -- 23
2020-09-13 21:00:00 27.9 5 Este 23 Este 0 953.6 -- 20
2020-09-13 20:00:00 30.2 14 Este 29 Nordeste 0 953.1 -- 17
2020-09-13 19:00:00 31.5 20 Nordeste 33 Nordeste 0 952.9 -- 16
2020-09-13 18:00:00 32.7 21 Nordeste 32 Norte 0 953 -- 18
2020-09-13 17:00:00 33.1 17 Nordeste 26 Nordeste 0 953.3 -- 18
2020-09-13 16:00:00 33.3 12 Noroeste 22 Nordeste 0 953.8 -- 15
2020-09-13 15:00:00 32.9 8 Norte 15 Noroeste 0 954.3 -- 18
2020-09-13 14:00:00 30.2 7 Nordeste 13 Norte 0 955 -- 24
2020-09-13 13:00:00 27.6 6 Norte 11 Norte 0 955.9 -- 29
2020-09-13 12:00:00 24.7 4 Noroeste 8 Noroeste 0 956.6 -- 38
2020-09-13 11:00:00 20.5 2 Noroeste 6 Sudoeste 0 956.7 -- 48
2020-09-13 10:00:00 16.6 3 Oeste 5 Oeste 0 956.6 -- 58
2020-09-13 09:00:00 14.6 0 Calma 4 Nordeste 0 956.2 -- 63
2020-09-13 08:00:00 13.6 2 Nordeste 4 Sudoeste 0 955.7 -- 64
2020-09-13 07:00:00 14.2 0 Calma 6 Noroeste 0 955.3 -- 62
2020-09-13 06:00:00 14.7 4 Nordeste 8 Sudoeste 0 954.9 -- 60
2020-09-13 05:00:00 15.5 4 Sudoeste 6 Oeste 0 954.7 -- 56
2020-09-13 04:00:00 16 5 Oeste 7 Noroeste 0 954.8 -- 55
2020-09-13 03:00:00 17.5 3 Este 7 Nordeste 0 954.8 -- 48
2020-09-13 02:00:00 17.8 3 Este 12 Sur 0 954.7 -- 50
2020-09-13 01:00:00 18.3 5 Sur 12 Sur 0 954.4 -- 51
2020-09-13 00:00:00 21.1 3 Sur 14 Sur 0 954.1 -- 40
2020-09-12 23:00:00 23.5 5 Este 16 Nordeste 0 953.8 -- 29
2020-09-12 22:00:00 25 11 Este 19 Este 0 952.9 -- 28
2020-09-12 21:00:00 25.9 14 Nordeste 31 Nordeste 0 952 -- 26
2020-09-12 20:00:00 27.6 20 Nordeste 34 Nordeste 0 951.3 -- 27
2020-09-12 19:00:00 29.3 19 Nordeste 32 Nordeste 0 950.8 -- 25
2020-09-12 18:00:00 30.3 16 Nordeste 27 Nordeste 0 950.8 -- 23
2020-09-12 17:00:00 30.3 15 Norte 30 Nordeste 0 950.8 -- 25
2020-09-12 16:00:00 30.6 13 Norte 28 Norte 0 951.1 -- 26
2020-09-12 15:00:00 29.5 13 Norte 22 Nordeste 0 951.5 -- 29
2020-09-12 14:00:00 28.6 4 Este 13 Nordeste 0 951.9 -- 29
2020-09-12 13:00:00 26.4 6 Norte 12 Nordeste 0 952.4 -- 35
2020-09-12 12:00:00 23.5 3 Noroeste 8 Sudoeste 0 952.8 -- 44
2020-09-12 11:00:00 19.3 4 Oeste 8 Oeste 0 953 -- 51
2020-09-12 10:00:00 16.2 3 Oeste 5 Sudoeste 0 952.8 -- 59
2020-09-12 09:00:00 13.8 2 Sudoeste 5 Sudoeste 0 952.4 -- 65
2020-09-12 08:00:00 13.3 0 Calma 4 Sur 0 951.6 -- 67
2020-09-12 07:00:00 13.7 2 Sur 5 Este 0 951.1 -- 64
2020-09-12 06:00:00 14.1 5 Sudoeste 6 Sudeste 0 950.8 -- 64
2020-09-12 05:00:00 15.5 3 Sur 6 Sur 0 950.4 -- 58
2020-09-12 04:00:00 15.9 3 Sudeste 12 Sudeste 0 950.2 -- 56
2020-09-12 03:00:00 17.5 7 Sur 11 Sur 0 950.1 -- 50
2020-09-12 02:00:00 18.6 4 Sudeste 13 Sur 0 950 -- 47
2020-09-12 01:00:00 20.6 7 Sudeste 13 Sudeste 0 949.8 -- 41
2020-09-12 00:00:00 22.1 4 Sudeste 10 Sudeste 0 949.4 -- 40
2020-09-11 23:00:00 23.6 3 Oeste 21 Nordeste 0 948.8 -- 35
2020-09-11 22:00:00 24.5 12 Nordeste 24 Nordeste 0 948.1 -- 33
2020-09-11 21:00:00 25.4 17 Este 32 Nordeste 0 947.3 -- 32
2020-09-11 20:00:00 27.1 20 Nordeste 32 Nordeste 0 946.8 -- 32
2020-09-11 19:00:00 28.6 21 Nordeste 31 Nordeste 0 946.7 -- 28
2020-09-11 18:00:00 29.7 18 Nordeste 30 Nordeste 0 946.7 -- 24
2020-09-11 17:00:00 30.4 14 Nordeste 23 Nordeste 0 947 -- 21
2020-09-11 16:00:00 30.2 9 Norte 18 Norte 0 947.5 -- 19
2020-09-11 15:00:00 29.4 7 Oeste 14 Sudoeste 0 948 -- 22
2020-09-11 14:00:00 27.5 6 Sudoeste 11 Sur 0 948.5 -- 23
2020-09-11 13:00:00 24.6 5 Oeste 12 Oeste 0 949.3 -- 30
2020-09-11 12:00:00 22 3 Oeste 9 Noroeste 0 950 -- 38
2020-09-11 11:00:00 18.4 2 Oeste 8 Norte 0 950.3 -- 46
2020-09-11 10:00:00 15 0 Calma 6 Nordeste 0 950.3 -- 56
2020-09-11 09:00:00 11.9 3 Norte 4 Norte 0 950.3 -- 66
2020-09-11 08:00:00 10.7 3 Sudoeste 5 Sudoeste 0 950 -- 71
2020-09-11 07:00:00 12 3 Nordeste 5 Este 0 949.8 -- 65
2020-09-11 06:00:00 12.6 2 Sudeste 9 Sur 0 949.6 -- 63
2020-09-11 05:00:00 13.9 3 Sudeste 8 Sudeste 0 949.7 -- 57
2020-09-11 04:00:00 14.9 4 Sudeste 12 Sur 0 949.9 -- 54
2020-09-11 03:00:00 15.3 3 Este 10 Sur 0 950 -- 54
2020-09-11 02:00:00 15.7 5 Sur 10 Sur 0 950.1 -- 53
2020-09-11 01:00:00 17.3 4 Sudoeste 8 Sur 0 950.5 -- 49
2020-09-11 00:00:00 19.7 2 Sudeste 6 Noroeste 0 950.4 -- 40
2020-09-10 23:00:00 20.8 6 Sur 14 Este 0 950.1 -- 38
2020-09-10 22:00:00 22.8 7 Este 17 Nordeste 0 949.9 -- 33
2020-09-10 21:00:00 24.7 10 Nordeste 25 Norte 0 949.3 -- 29
2020-09-10 20:00:00 27 15 Nordeste 30 Nordeste 0 949 -- 23
2020-09-10 19:00:00 28.1 21 Nordeste 33 Nordeste 0 949 -- 20
2020-09-10 18:00:00 29.1 21 Nordeste 42 Nordeste 0 949 -- 20
2020-09-10 17:00:00 29.2 21 Nordeste 41 Nordeste 0 949.5 -- 21
2020-09-10 16:00:00 29.1 21 Nordeste 38 Nordeste 0 950.1 -- 22
2020-09-10 15:00:00 29 17 Nordeste 32 Nordeste 0 950.5 -- 23
2020-09-10 14:00:00 27.4 4 Este 17 Sudoeste 0 951.4 -- 28
2020-09-10 13:00:00 25.7 3 Sudeste 12 Oeste 0 952.3 -- 31
2020-09-10 12:00:00 23.1 4 Sudoeste 9 Oeste 0 953 -- 40
2020-09-10 11:00:00 20 3 Oeste 7 Sudoeste 0 953.2 -- 49
2020-09-10 10:00:00 17.4 4 Norte 7 Sudeste 0 953.4 -- 57
2020-09-10 09:00:00 13.9 5 Sur 9 Sur 0 953.2 -- 69
2020-09-10 08:00:00 13.6 5 Nordeste 8 Nordeste 0 953 -- 71
2020-09-10 07:00:00 14.6 3 Sur 5 Sudoeste 0 952.9 -- 68
2020-09-10 06:00:00 15.1 2 Sudoeste 7 Oeste 0 953 -- 67
2020-09-10 05:00:00 16.3 2 Norte 9 Sudoeste 0 953.2 -- 61
2020-09-10 04:00:00 17.3 5 Sudoeste 12 Sudoeste 0 953.3 -- 60
2020-09-10 03:00:00 19 3 Nordeste 19 Este 0 953.3 -- 54
2020-09-10 02:00:00 19.9 12 Este 22 Este 0 953.4 -- 52
2020-09-10 01:00:00 21.2 13 Nordeste 27 Nordeste 0 953.4 -- 48
2020-09-10 00:00:00 22.5 18 Nordeste 28 Nordeste 0 953.3 -- 42
2020-09-09 23:00:00 22.7 5 Oeste 23 Norte 0 953 -- 36
2020-09-09 22:00:00 23.9 3 Noroeste 12 Nordeste 0 952.3 -- 30
2020-09-09 21:00:00 25 8 Nordeste 16 Nordeste 0 951.4 -- 27
2020-09-09 20:00:00 26.6 9 Nordeste 24 Nordeste 0 951.3 -- 24
2020-09-09 19:00:00 27.7 12 Nordeste 28 Nordeste 0 951.3 -- 22
2020-09-09 18:00:00 28.6 12 Nordeste 28 Nordeste 0 951.5 -- 20
2020-09-09 17:00:00 29.1 9 Este 25 Este 0 951.6 -- 21
2020-09-09 16:00:00 28.9 5 Este 17 Nordeste 0 952 -- 22
2020-09-09 15:00:00 28.1 7 Este 15 Nordeste 0 952.8 -- 23
2020-09-09 14:00:00 25.8 6 Norte 15 Oeste 0 953.6 -- 26
2020-09-09 13:00:00 25.3 5 Sur 11 Sudeste 0 954.3 -- 29
2020-09-09 12:00:00 22 3 Norte 8 Oeste 0 955.1 -- 31
2020-09-09 11:00:00 18 3 Sur 9 Oeste 0 955.6 -- 42
2020-09-09 10:00:00 13.9 3 Sudoeste 5 Oeste 0 955.6 -- 56
2020-09-09 09:00:00 11.9 3 Sur 6 Sudoeste 0 955.4 -- 60
2020-09-09 08:00:00 11.8 3 Nordeste 6 Sur 0 955.1 -- 57
2020-09-09 07:00:00 12.5 2 Oeste 8 Sur 0 954.9 -- 56
2020-09-09 06:00:00 12.4 5 Sur 8 Sudoeste 0 954.6 -- 59
2020-09-09 05:00:00 14.2 0 Calma 6 Nordeste 0 954.5 -- 51
2020-09-09 04:00:00 15.1 4 Sur 9 Sudoeste 0 954.5 -- 47
2020-09-09 03:00:00 15.5 4 Oeste 7 Nordeste 0 955 -- 47
2020-09-09 02:00:00 16 2 Noroeste 7 Sudoeste 0 955.1 -- 46
2020-09-09 01:00:00 16.7 5 Oeste 8 Oeste 0 955.3 -- 45
2020-09-09 00:00:00 18.9 2 Sur 7 Sudeste 0 955.3 -- 34
2020-09-08 23:00:00 20.1 4 Este 9 Este 0 955.1 -- 31
2020-09-08 22:00:00 21.2 2 Sudeste 16 Este 0 954.9 -- 29
2020-09-08 21:00:00 22.3 8 Este 26 Nordeste 0 954.4 -- 27
2020-09-08 20:00:00 23.8 18 Nordeste 34 Nordeste 0 954.1 -- 25
2020-09-08 19:00:00 24.6 23 Nordeste 40 Nordeste 0 954.1 -- 25
2020-09-08 18:00:00 26.5 11 Este 41 Nordeste 0 953.7 -- 21
2020-09-08 17:00:00 26.8 12 Este 36 Nordeste 0 953.9 -- 22
2020-09-08 16:00:00 26 17 Norte 31 Nordeste 0 954.2 -- 24
2020-09-08 15:00:00 24.6 13 Norte 26 Norte 0 954.9 -- 26
2020-09-08 14:00:00 23.5 8 Nordeste 19 Nordeste 0 955.7 -- 29
2020-09-08 13:00:00 21.4 11 Norte 20 Nordeste 0 956.6 -- 35
2020-09-08 12:00:00 18.4 5 Oeste 10 Noroeste 0 957.2 -- 43
2020-09-08 11:00:00 15.1 3 Noroeste 6 Oeste 0 957.6 -- 52
2020-09-08 10:00:00 12 2 Norte 6 Este 0 957.6 -- 61
2020-09-08 09:00:00 9.1 2 Sudoeste 6 Sudoeste 0 957.7 -- 70
2020-09-08 08:00:00 7.4 5 Sudoeste 6 Sudoeste 0 957.1 -- 77
2020-09-08 07:00:00 8.4 3 Oeste 5 Oeste 0 956.6 -- 71
2020-09-08 06:00:00 9.3 0 Calma 6 Sur 0 956.2 -- 69
2020-09-08 05:00:00 9.8 4 Sur 11 Sudeste 0 956.1 -- 67
2020-09-08 04:00:00 10.8 3 Sudeste 12 Sur 0 955.8 -- 62
2020-09-08 03:00:00 11.6 5 Sudoeste 11 Sur 0 955.8 -- 60
2020-09-08 02:00:00 13.1 7 Sur 10 Sudoeste 0 955.6 -- 55
2020-09-08 01:00:00 14.7 6 Sudoeste 9 Sudoeste 0 955.4 -- 50
2020-09-08 00:00:00 15.2 4 Sur 20 Nordeste 0 955.2 -- 45
2020-09-07 23:00:00 16.5 14 Nordeste 36 Nordeste 0 954.4 -- 43
2020-09-07 22:00:00 17.3 20 Nordeste 33 Nordeste 0 954 -- 40
2020-09-07 21:00:00 18.7 14 Este 31 Nordeste 0 953 -- 35
2020-09-07 20:00:00 21.3 17 Nordeste 31 Norte 0 952.3 -- 28
2020-09-07 19:00:00 23.3 17 Nordeste 33 Este 0 951.8 -- 23
2020-09-07 18:00:00 23.6 20 Nordeste 38 Este 0 951.7 -- 24
2020-09-07 17:00:00 23.7 25 Nordeste 39 Nordeste 0 951.6 -- 24
2020-09-07 16:00:00 23.3 24 Nordeste 42 Nordeste 0 952 -- 25
2020-09-07 15:00:00 22.9 26 Nordeste 44 Nordeste 0 952.1 -- 26
2020-09-07 14:00:00 21.7 27 Nordeste 43 Nordeste 0 952.4 -- 28
2020-09-07 13:00:00 21.3 13 Nordeste 29 Nordeste 0 952.9 -- 28
2020-09-07 12:00:00 19.9 5 Norte 17 Oeste 0 953.5 -- 38
2020-09-07 11:00:00 17.2 7 Sudoeste 14 Sudoeste 0 953.6 -- 48
2020-09-07 10:00:00 13.5 4 Sudoeste 10 Sudoeste 0 953.5 -- 64
2020-09-07 09:00:00 10.2 6 Sudoeste 13 Sur 0 953.1 -- 75
2020-09-07 08:00:00 10.3 3 Sudeste 13 Sur 0 952.8 -- 74
2020-09-07 07:00:00 9.9 7 Sudoeste 12 Sur 0 952.3 -- 77
2020-09-07 06:00:00 10.4 3 Oeste 8 Sur 0 952 -- 74
2020-09-07 05:00:00 10.7 6 Sudoeste 8 Oeste 0 952.1 -- 75
2020-09-07 04:00:00 11.9 3 Sudoeste 13 Nordeste 0 952.2 -- 70
2020-09-07 03:00:00 13.8 3 Este 16 Este 0 952.2 -- 63
2020-09-07 02:00:00 15 12 Este 19 Este 0 952.2 -- 60
2020-09-07 01:00:00 15.7 13 Nordeste 20 Nordeste 0 952 -- 57
2020-09-07 00:00:00 16.5 12 Nordeste 24 Este 0 951.6 -- 54
2020-09-06 23:00:00 17.5 15 Nordeste 31 Nordeste 0 951.4 -- 49
2020-09-06 22:00:00 18.6 20 Nordeste 40 Nordeste 0 950.9 -- 46
2020-09-06 21:00:00 20.1 18 Nordeste 41 Nordeste 0 950.1 -- 42
2020-09-06 20:00:00 22.2 19 Nordeste 40 Nordeste 0 949.7 -- 36
2020-09-06 19:00:00 22.8 29 Nordeste 46 Nordeste 0 949.1 -- 38
2020-09-06 18:00:00 24.3 28 Nordeste 44 Nordeste 0 948.8 -- 37
2020-09-06 17:00:00 25.6 26 Nordeste 42 Nordeste 0 949.1 -- 34
2020-09-06 16:00:00 26.2 20 Nordeste 35 Este 0 949.6 -- 33
2020-09-06 15:00:00 26 18 Nordeste 32 Nordeste 0 950.2 -- 35
2020-09-06 14:00:00 25 10 Nordeste 21 Nordeste 0 951 -- 40
2020-09-06 13:00:00 23.5 6 Norte 16 Nordeste 0 951.7 -- 45
2020-09-06 12:00:00 21.5 7 Norte 18 Norte 0 952.4 -- 51
2020-09-06 11:00:00 19.1 4 Nordeste 10 Este 0 952.7 -- 61
2020-09-06 10:00:00 17.8 3 Sudeste 15 Sur 0 952.7 -- 67
2020-09-06 09:00:00 15.6 4 Sudoeste 6 Sudoeste 0 952.8 -- 75
2020-09-06 08:00:00 14.6 0 Calma 6 Nordeste 0 952.6 -- 78
2020-09-06 07:00:00 15 4 Nordeste 6 Sudeste 0 952.3 -- 77
2020-09-06 06:00:00 15.7 3 Sudeste 10 Sudeste 0 952.5 -- 75
2020-09-06 05:00:00 16.1 5 Sudeste 11 Sudeste 0 952.4 -- 74
2020-09-06 04:00:00 16.6 3 Sudeste 11 Sudeste 0 952.6 -- 71
2020-09-06 03:00:00 17.5 4 Sudeste 21 Nordeste 0 952.8 -- 68
2020-09-06 02:00:00 18 7 Nordeste 14 Nordeste 0 952.9 -- 66
2020-09-06 01:00:00 19.2 2 Sudeste 16 Este 0 952.8 -- 61
2020-09-06 00:00:00 20.1 8 Este 15 Nordeste 0 952.5 -- 59
2020-09-05 23:00:00 21.1 9 Este 25 Nordeste 0 952.3 -- 55
2020-09-05 22:00:00 22.3 18 Nordeste 34 Nordeste 0 951.5 -- 52
2020-09-05 21:00:00 24.1 23 Nordeste 41 Nordeste 0 950.8 -- 47
2020-09-05 20:00:00 26.7 22 Nordeste 42 Este 0 950.5 -- 40
2020-09-05 19:00:00 29.1 21 Nordeste 41 Nordeste 0 950.3 -- 33
2020-09-05 18:00:00 30.1 23 Nordeste 36 Nordeste 0 950.6 -- 27
2020-09-05 17:00:00 30.2 22 Nordeste 37 Nordeste 0 950.9 -- 26
2020-09-05 16:00:00 29.7 21 Nordeste 36 Nordeste 0 951.6 -- 28
2020-09-05 15:00:00 28.9 23 Nordeste 36 Nordeste 0 952.4 -- 31
2020-09-05 14:00:00 27.9 19 Nordeste 31 Nordeste 0 952.8 -- 34
2020-09-05 13:00:00 27.4 16 Norte 28 Norte 0 953.4 -- 39
2020-09-05 12:00:00 25.4 7 Nordeste 15 Nordeste 0 954.1 -- 40
2020-09-05 11:00:00 21.8 4 Norte 9 Nordeste 0 954.3 -- 45
2020-09-05 10:00:00 17.7 3 Oeste 5 Oeste 0 954.2 -- 57
2020-09-05 09:00:00 16.1 4 Nordeste 7 Nordeste 0 954 -- 61
2020-09-05 08:00:00 14.3 3 Oeste 4 Sudeste 0 953.7 -- 67
2020-09-05 07:00:00 14.9 0 Calma 3 Oeste 0 953.5 -- 63
2020-09-05 06:00:00 15.7 0 Calma 4 Sudeste 0 953.5 -- 58
2020-09-05 05:00:00 16.7 2 Norte 5 Sudoeste 0 953.5 -- 55
2020-09-05 04:00:00 17.3 4 Sudoeste 8 Sudoeste 0 953.6 -- 53
2020-09-05 03:00:00 19 3 Sudoeste 4 Sudoeste 0 953.8 -- 48
2020-09-05 02:00:00 20.1 0 Calma 7 Oeste 0 953.9 -- 44
2020-09-05 01:00:00 22 2 Norte 10 Nordeste 0 953.8 -- 39
2020-09-05 00:00:00 24.1 4 Nordeste 18 Sudeste 0 953.8 -- 34
2020-09-04 23:00:00 25.9 11 Sur 14 Sur 0 953.7 -- 29
2020-09-04 22:00:00 26.4 5 Oeste 22 Este 0 953.2 -- 29
2020-09-04 21:00:00 28.3 10 Este 26 Nordeste 0 952.7 -- 25
2020-09-04 20:00:00 30.6 16 Nordeste 31 Nordeste 0 952.4 -- 23
2020-09-04 19:00:00 31.8 17 Nordeste 31 Nordeste 0 952.4 -- 21
2020-09-04 18:00:00 32 21 Nordeste 33 Nordeste 0 952.7 -- 22
2020-09-04 17:00:00 32.7 16 Nordeste 27 Nordeste 0 953.2 -- 22
2020-09-04 16:00:00 33.2 9 Nordeste 19 Norte 0 953.9 -- 17
2020-09-04 15:00:00 31.6 8 Norte 17 Nordeste 0 955 -- 23
2020-09-04 14:00:00 30 4 Nordeste 12 Norte 0 955.7 -- 27
2020-09-04 13:00:00 28.1 5 Nordeste 12 Sudeste 0 956.6 -- 30
2020-09-04 12:00:00 24.5 4 Norte 8 Norte 0 957.2 -- 39
2020-09-04 11:00:00 20.7 3 Oeste 7 Sur 0 957.6 -- 49
2020-09-04 10:00:00 16.6 2 Oeste 5 Noroeste 0 957.5 -- 54
2020-09-04 09:00:00 15.4 4 Norte 5 Nordeste 0 957.2 -- 54
2020-09-04 08:00:00 12.9 2 Sudeste 5 Sudeste 0 956.8 -- 64
2020-09-04 07:00:00 13.3 2 Norte 5 Nordeste 0 956.3 -- 60
2020-09-04 06:00:00 14 0 Calma 5 Sudoeste 0 956 -- 58
2020-09-04 05:00:00 14.7 3 Sudoeste 5 Sur 0 955.9 -- 55
2020-09-04 04:00:00 15.7 2 Nordeste 5 Nordeste 0 955.9 -- 52
2020-09-04 03:00:00 16.6 4 Sudeste 9 Sur 0 955.9 -- 50
2020-09-04 02:00:00 17.8 3 Oeste 7 Norte 0 955.9 -- 47
2020-09-04 01:00:00 19.3 3 Noroeste 9 Nordeste 0 955.9 -- 43
2020-09-04 00:00:00 21.2 6 Nordeste 9 Sur 0 955.6 -- 36
2020-09-03 23:00:00 22.7 6 Sudeste 10 Sudeste 0 955.2 -- 31
2020-09-03 22:00:00 24.3 4 Este 15 Nordeste 0 954.5 -- 29
2020-09-03 21:00:00 26.2 10 Nordeste 28 Nordeste 0 953.6 -- 26
2020-09-03 20:00:00 28.2 18 Nordeste 33 Nordeste 0 952.9 -- 24
2020-09-03 19:00:00 29.8 18 Nordeste 28 Nordeste 0 952.7 -- 21
2020-09-03 18:00:00 30.8 14 Nordeste 27 Nordeste 0 952.6 -- 18
2020-09-03 17:00:00 32.2 7 Nordeste 15 Nordeste 0 952.8 -- 11
2020-09-03 16:00:00 31.8 3 Noroeste 12 Oeste 0 953.2 -- 12
2020-09-03 15:00:00 29.4 4 Noroeste 14 Sudoeste 0 953.9 -- 18
2020-09-03 14:00:00 27.8 6 Sudoeste 12 Oeste 0 954.4 -- 27
2020-09-03 13:00:00 24.8 5 Norte 11 Norte 0 954.8 -- 34
2020-09-03 12:00:00 21.5 4 Noroeste 10 Noroeste 0 955.3 -- 38
2020-09-03 11:00:00 17.8 3 Oeste 7 Sudoeste 0 955.7 -- 45
2020-09-03 10:00:00 14 3 Oeste 6 Sudoeste 0 955.4 -- 55
2020-09-03 09:00:00 12.1 0 Calma 5 Sudoeste 0 955 -- 59
2020-09-03 08:00:00 10.2 0 Calma 3 Nordeste 0 954.5 -- 65
2020-09-03 07:00:00 10.5 0 Calma 3 Sur 0 954 -- 64
2020-09-03 06:00:00 11.3 3 Norte 7 Oeste 0 953.6 -- 62
2020-09-03 05:00:00 11.5 5 Oeste 7 Oeste 0 953.4 -- 62
2020-09-03 04:00:00 13.1 3 Norte 5 Nordeste 0 953.3 -- 56
2020-09-03 03:00:00 14.5 3 Nordeste 8 Nordeste 0 953.2 -- 51
2020-09-03 02:00:00 15.8 3 Sudeste 14 Sur 0 953 -- 45
2020-09-03 01:00:00 17.3 9 Sur 13 Sur 0 952.7 -- 41
2020-09-03 00:00:00 19.4 4 Nordeste 19 Nordeste 0 952.4 -- 37
2020-09-02 23:00:00 20.3 8 Este 18 Este 0 952 -- 34
2020-09-02 22:00:00 21.5 11 Este 23 Nordeste 0 951.3 -- 31
2020-09-02 21:00:00 22.7 15 Nordeste 30 Nordeste 0 950.2 -- 28
2020-09-02 20:00:00 25.2 18 Nordeste 32 Nordeste 0 949.5 -- 23
2020-09-02 19:00:00 26.5 18 Nordeste 32 Nordeste 0 949 -- 21
2020-09-02 18:00:00 27.2 -- -- -- -- -- 948.7 -- 19
2020-09-02 17:00:00 28.9 5 Sudeste 18 Nordeste 0 948.6 -- 17
2020-09-02 16:00:00 27.2 7 Este 17 Oeste 0 949.1 -- 20
2020-09-02 15:00:00 26.2 6 Noroeste 14 Oeste 0 949.6 -- 22
2020-09-02 14:00:00 24.6 8 Nordeste 16 Nordeste 0 950 -- 27
2020-09-02 13:00:00 23 4 Sur 15 Oeste 0 950.5 -- 29
2020-09-02 12:00:00 20.2 4 Noroeste 10 Oeste 0 951.1 -- 37
2020-09-02 11:00:00 17.5 4 Oeste 9 Noroeste 0 951 -- 45
2020-09-02 10:00:00 14.7 2 Norte 5 Nordeste 0 950.7 -- 48
2020-09-02 09:00:00 11.2 0 Calma 4 Nordeste 0 950.9 -- 59
2020-09-02 08:00:00 9.9 2 Noroeste 6 Sur 0 950.4 -- 62
2020-09-02 07:00:00 10.3 2 Sudoeste 8 Sur 0 949.7 -- 61
2020-09-02 06:00:00 11.6 4 Sudeste 12 Sur 0 949.3 -- 56
2020-09-02 05:00:00 12.4 10 Sur 14 Sur 0 949 -- 52
2020-09-02 04:00:00 12.9 6 Sur 11 Sur 0 948.8 -- 50
2020-09-02 03:00:00 14.2 6 Sudeste 10 Sur 0 948.7 -- 46
2020-09-02 02:00:00 15.1 5 Oeste 7 Sudoeste 0 948.6 -- 47
2020-09-02 01:00:00 16.9 4 Oeste 14 Nordeste 0 948.5 -- 43
2020-09-02 00:00:00 18.4 10 Este 14 Este 0 947.9 -- 34
2020-09-01 23:00:00 19.8 9 Nordeste 24 Nordeste 0 947.6 -- 33
2020-09-01 22:00:00 21.3 17 Nordeste 30 Nordeste 0 946.7 -- 31
2020-09-01 21:00:00 22.8 17 Nordeste 33 Nordeste 0 946.1 -- 21
2020-09-01 20:00:00 23.5 17 Nordeste 29 Nordeste 0 945.5 -- 22
2020-09-01 19:00:00 24.5 15 Nordeste 27 Nordeste 0 945.3 -- 23
2020-09-01 18:00:00 25.4 19 Nordeste 31 Nordeste 0 945.2 -- 22
2020-09-01 17:00:00 26.2 15 Nordeste 28 Nordeste 0 945.6 -- 18
2020-09-01 16:00:00 26.7 6 Norte 18 Nordeste 0 946.1 -- 18
2020-09-01 15:00:00 25.3 5 Norte 15 Norte 0 946.7 -- 22
2020-09-01 14:00:00 22.8 5 Oeste 14 Noroeste 0 947.3 -- 25
2020-09-01 13:00:00 22 6 Norte 12 Noroeste 0 947.7 -- 28
2020-09-01 12:00:00 19.5 3 Oeste 10 Noroeste 0 948.5 -- 34
2020-09-01 11:00:00 16.5 3 Sudeste 8 Oeste 0 948.6 -- 35
2020-09-01 10:00:00 13.9 4 Oeste 10 Noroeste 0 949 -- 46
2020-09-01 09:00:00 12.4 6 Oeste 10 Oeste 0 948.7 -- 54
2020-09-01 08:00:00 11.9 2 Sur 5 Sur 0 949 -- 48
2020-09-01 07:00:00 11.8 3 Sur 5 Sudoeste 0 948.7 -- 46
2020-09-01 06:00:00 12 3 Sur 6 Sur 0 948.6 -- 46
2020-09-01 05:00:00 12.1 4 Este 12 Sur 0 948.9 -- 48
2020-09-01 04:00:00 13.9 6 Sur 12 Sudeste 0 949.3 -- 38
2020-09-01 03:00:00 13.6 5 Oeste 7 Oeste 0 949.8 -- 44
2020-09-01 02:00:00 15.4 3 Este 8 Este 0 950.1 -- 35
2020-09-01 01:00:00 16.5 4 Nordeste 13 Sudeste 0 950 -- 33
2020-09-01 00:00:00 18.3 5 Sur 10 Sudeste 0 949.9 -- 27
2020-08-31 23:00:00 19.9 5 Este 19 Este 0 949.6 -- 25
2020-08-31 22:00:00 21.2 13 Nordeste 27 Nordeste 0 949.2 -- 23
2020-08-31 21:00:00 21.7 20 Nordeste 35 Nordeste 0 948.6 -- 22
2020-08-31 20:00:00 23.5 21 Nordeste 33 Nordeste 0 948.1 -- 24
2020-08-31 19:00:00 26.9 12 Nordeste 25 Norte 0 948.1 -- 19
2020-08-31 18:00:00 28 5 Sudoeste 18 Oeste 0 948.5 -- 12
2020-08-31 17:00:00 27.4 7 Oeste 18 Noroeste 0 949.2 -- 13
2020-08-31 16:00:00 26.1 8 Sudoeste 18 Sudoeste 0 949.9 -- 16
2020-08-31 15:00:00 24.6 8 Noroeste 19 Este 0 950.8 -- 20
2020-08-31 14:00:00 22.1 8 Sudoeste 18 Sudoeste 0 951.5 -- 25
2020-08-31 13:00:00 20.3 9 Sudoeste 19 Oeste 0 952.4 -- 31
2020-08-31 12:00:00 17.9 4 Oeste 13 Oeste 0 953 -- 40
2020-08-31 11:00:00 14 4 Noroeste 10 Oeste 0 953.4 -- 57
2020-08-31 10:00:00 11.7 4 Norte 8 Nordeste 0 953.5 -- 62
2020-08-31 09:00:00 8.7 0 Calma 11 Sur 0 953.4 -- 72
2020-08-31 08:00:00 7 4 Sur 9 Sur 0 953.3 -- 78
2020-08-31 07:00:00 7.7 0 Calma 6 Nordeste 0 952.8 -- 75
2020-08-31 06:00:00 8.5 2 Este 6 Este 0 952.7 -- 74
2020-08-31 05:00:00 9.1 0 Calma 8 Sur 0 952.6 -- 72
2020-08-31 04:00:00 10 8 Sur 13 Sur 0 952.7 -- 71
2020-08-31 03:00:00 10.9 4 Sur 9 Sur 0 952.5 -- 67
2020-08-31 02:00:00 11.5 4 Sudoeste 8 Este 0 952.5 -- 66
2020-08-31 01:00:00 12.8 3 Este 9 Sur 0 952.4 -- 61
2020-08-31 00:00:00 13.7 4 Norte 13 Nordeste 0 951.9 -- 57
2020-08-30 23:00:00 15.1 9 Nordeste 18 Nordeste 0 951.2 -- 52
2020-08-30 22:00:00 16 10 Nordeste 24 Nordeste 0 950.6 -- 49
2020-08-30 21:00:00 17.4 14 Nordeste 28 Nordeste 0 949.4 -- 41
2020-08-30 20:00:00 19.4 21 Nordeste 35 Nordeste 0 948.3 -- 33
2020-08-30 19:00:00 20.9 18 Nordeste 33 Nordeste 0 947.9 -- 31
2020-08-30 18:00:00 20.1 14 Nordeste 31 Nordeste 0 947.6 -- 33
2020-08-30 17:00:00 20.4 18 Nordeste 30 Nordeste 0 947.3 -- 31
2020-08-30 16:00:00 20.8 16 Nordeste 30 Nordeste 0 947.3 -- 29
2020-08-30 15:00:00 22.2 12 Norte 23 Nordeste 0 947.8 -- 25
2020-08-30 14:00:00 21.3 6 Sudeste 22 Nordeste 0 948.1 -- 27
2020-08-30 13:00:00 19.6 5 Este 14 Este 0 948.3 -- 31
2020-08-30 12:00:00 18 6 Sur 15 Oeste 0 948.6 -- 36
2020-08-30 11:00:00 15.8 6 Sudoeste 14 Oeste 0 948.6 -- 45
2020-08-30 10:00:00 13.1 8 Sudoeste 18 Sudoeste 0 948.1 -- 55
2020-08-30 09:00:00 10.5 11 Sudoeste 21 Sudoeste 0 948 -- 65
2020-08-30 08:00:00 9.7 6 Sur 13 Sur 0 947.4 -- 66
2020-08-30 07:00:00 10 7 Sur 16 Sudoeste 0 946.8 -- 63
2020-08-30 06:00:00 10.6 8 Sudoeste 17 Sudoeste 0 946.5 -- 59
2020-08-30 05:00:00 11.6 3 Sudoeste 13 Noroeste 0 946.4 -- 56
2020-08-30 04:00:00 12 6 Sudoeste 13 Sudoeste 0 946 -- 53
2020-08-30 03:00:00 12.4 6 Sudoeste 15 Sudoeste 0 945.8 -- 47
2020-08-30 02:00:00 13.3 7 Sudoeste 19 Noroeste 0 945.8 -- 53
2020-08-30 01:00:00 14.5 14 Noroeste 27 Noroeste 0 945.4 -- 51
2020-08-30 00:00:00 15.1 13 Noroeste 23 Oeste 0 945.1 -- 52
2020-08-29 23:00:00 16 18 Noroeste 36 Noroeste 0 944.2 -- 48
2020-08-29 22:00:00 17.1 14 Noroeste 34 Noroeste 0 943.3 -- 46
2020-08-29 21:00:00 17.8 17 Noroeste 39 Noroeste 0 942.4 -- 42
2020-08-29 20:00:00 18.8 27 Noroeste 44 Noroeste 0 941.4 -- 36
2020-08-29 19:00:00 19.1 26 Noroeste 59 Noroeste 0 940.7 -- 33
2020-08-29 18:00:00 22.4 22 Noroeste 38 Noroeste 0 939.5 -- 26
2020-08-29 17:00:00 23.3 20 Noroeste 34 Noroeste 0 939.4 -- 23
2020-08-29 16:00:00 22.4 17 Noroeste 35 Noroeste 0 939.7 -- 26
2020-08-29 15:00:00 22.7 14 Noroeste 39 Noroeste 0 940.1 -- 26
2020-08-29 14:00:00 21.5 8 Norte 21 Noroeste 0 940.1 -- 29
2020-08-29 13:00:00 21.7 10 Oeste 21 Noroeste 0 940.6 -- 30
2020-08-29 12:00:00 19.9 6 Sudoeste 17 Sur 0 941.1 -- 35
2020-08-29 11:00:00 18.6 3 Sur 8 Nordeste 0 941.2 -- 40
2020-08-29 10:00:00 16.4 4 Sudeste 8 Sur 0 941.5 -- 47
2020-08-29 09:00:00 14.3 5 Sudoeste 9 Sudoeste 0 941.1 -- 54
2020-08-29 08:00:00 13 7 Sudoeste 10 Sudoeste 0 940.9 -- 62
2020-08-29 07:00:00 14.8 3 Sudeste 16 Nordeste 0 940.7 -- 54
2020-08-29 06:00:00 15.7 12 Nordeste 25 Nordeste 0 940.5 -- 52
2020-08-29 05:00:00 16.3 14 Este 27 Nordeste 0 940.7 -- 46
2020-08-29 04:00:00 16.5 14 Este 24 Nordeste 0 940.9 -- 47
2020-08-29 03:00:00 16.8 16 Nordeste 25 Nordeste 0 941.1 -- 47
2020-08-29 02:00:00 17 16 Nordeste 28 Nordeste 0 941.3 -- 50
2020-08-29 01:00:00 16.7 21 Nordeste 34 Nordeste 0 941.5 -- 57
2020-08-29 00:00:00 17.3 15 Nordeste 30 Nordeste 0 941.4 -- 58
2020-08-28 23:00:00 17.1 18 Nordeste 39 Nordeste 0 941.2 -- 61
2020-08-28 22:00:00 17.5 23 Nordeste 38 Nordeste 0 941 -- 60
2020-08-28 21:00:00 18.5 26 Nordeste 45 Nordeste 0 940.5 -- 59
2020-08-28 20:00:00 20.4 27 Nordeste 57 Nordeste 0 940.3 -- 54
2020-08-28 19:00:00 22.6 26 Nordeste 51 Nordeste 0 939.8 -- 49
2020-08-28 18:00:00 24.3 32 Nordeste 51 Nordeste 0 938.9 -- 46
2020-08-28 17:00:00 27 28 Nordeste 49 Nordeste 0 938.8 -- 40
2020-08-28 16:00:00 29 29 Nordeste 44 Nordeste 0 939.3 -- 38
2020-08-28 15:00:00 30.4 7 Nordeste 22 Nordeste 0 940.4 -- 34
2020-08-28 14:00:00 28.3 7 Este 13 Noroeste 0 941.3 -- 39
2020-08-28 13:00:00 27.5 4 Noroeste 15 Nordeste 0 942.4 -- 42
2020-08-28 12:00:00 26.6 6 Norte 12 Este 0 943 -- 46
2020-08-28 11:00:00 25.1 4 Norte 12 Este 0 943.4 -- 52
2020-08-28 10:00:00 23.6 6 Este 13 Este 0 943.7 -- 58
2020-08-28 09:00:00 20.8 2 Oeste 14 Norte 0 944 -- 66
2020-08-28 08:00:00 20.2 7 Nordeste 14 Norte 0 944.3 -- 70
2020-08-28 07:00:00 20.3 0 Calma 6 Este 0 944.1 -- 65
2020-08-28 06:00:00 20.9 3 Este 10 Sur 0 944.1 -- 62
2020-08-28 05:00:00 21.9 7 Sur 16 Sudeste 0 944.4 -- 59
2020-08-28 04:00:00 22.7 5 Sur 17 Sur 0 945.4 -- 55
2020-08-28 03:00:00 23.2 3 Oeste 10 Este 0 945.5 -- 55
2020-08-28 02:00:00 24.8 7 Este 19 Nordeste 0 946.2 -- 50
2020-08-28 01:00:00 25.7 14 Nordeste 26 Este 0 946.4 -- 47
2020-08-28 00:00:00 26.8 17 Este 27 Nordeste 0 946.5 -- 44
2020-08-27 23:00:00 28 16 Nordeste 26 Este 0 946.7 -- 39
2020-08-27 22:00:00 29.6 15 Este 27 Nordeste 0 946.5 -- 28
2020-08-27 21:00:00 30.9 15 Nordeste 26 Nordeste 0 946.2 -- 26
2020-08-27 20:00:00 33 19 Nordeste 30 Nordeste 0 946 -- 25
2020-08-27 19:00:00 34.5 17 Nordeste 30 Nordeste 0 946.1 -- 22
2020-08-27 18:00:00 35.5 18 Nordeste 33 Nordeste 0 946.5 -- 19
2020-08-27 17:00:00 35.8 19 Nordeste 32 Este 0 947.1 -- 19
2020-08-27 16:00:00 35.8 6 Este 29 Este 0 948.1 -- 18
2020-08-27 15:00:00 34.1 10 Nordeste 22 Nordeste 0 949.3 -- 23
2020-08-27 14:00:00 32.8 9 Norte 17 Norte 0 949.9 -- 27
2020-08-27 13:00:00 31.2 5 Norte 12 Oeste 0 950.8 -- 27
2020-08-27 12:00:00 28.4 5 Noroeste 9 Oeste 0 951.4 -- 36
2020-08-27 11:00:00 24.9 3 Oeste 7 Oeste 0 951.7 -- 45
2020-08-27 10:00:00 21.8 3 Oeste 5 Oeste 0 951.9 -- 56
2020-08-27 09:00:00 19.3 3 Norte 5 Sudeste 0 952 -- 63
2020-08-27 08:00:00 18.2 3 Sudeste 6 Oeste 0 952 -- 65
2020-08-27 07:00:00 18.5 4 Oeste 6 Oeste 0 951.5 -- 66
2020-08-27 06:00:00 19.4 3 Oeste 5 Norte 0 951.5 -- 63
2020-08-27 05:00:00 20.3 2 Noroeste 8 Sur 0 951.6 -- 58
2020-08-27 04:00:00 21.1 3 Este 8 Sur 0 951.7 -- 57
2020-08-27 03:00:00 23.4 6 Sur 10 Sur 0 951.9 -- 49
2020-08-27 02:00:00 23.7 5 Sur 9 Sur 0 952.1 -- 47
2020-08-27 01:00:00 25.6 3 Sur 9 Nordeste 0 952 -- 41
2020-08-27 00:00:00 27.3 8 Nordeste 22 Nordeste 0 951.8 -- 41
2020-08-26 23:00:00 27.9 5 Nordeste 18 Este 0 951.9 -- 34
2020-08-26 22:00:00 29.3 14 Nordeste 26 Nordeste 0 951 -- 30
2020-08-26 21:00:00 30.6 18 Nordeste 31 Nordeste 0 950 -- 27
2020-08-26 20:00:00 32.6 17 Nordeste 37 Nordeste 0 949.6 -- 19
2020-08-26 19:00:00 33.1 24 Nordeste 40 Nordeste 0 949.5 -- 23
2020-08-26 18:00:00 34.2 22 Nordeste 36 Nordeste 0 949.3 -- 23
2020-08-26 17:00:00 35.3 20 Nordeste 30 Nordeste 0 949.6 -- 21
2020-08-26 16:00:00 35.1 17 Nordeste 30 Nordeste 0 950.1 -- 20
2020-08-26 15:00:00 34.5 13 Norte 22 Este 0 950.8 -- 22
2020-08-26 14:00:00 32.7 6 Nordeste 16 Norte 0 951.4 -- 25
2020-08-26 13:00:00 30.5 6 Norte 14 Nordeste 0 952.1 -- 30
2020-08-26 12:00:00 28 5 Nordeste 12 Nordeste 0 952.4 -- 34
2020-08-26 11:00:00 24.9 3 Norte 8 Nordeste 0 952.4 -- 41
2020-08-26 10:00:00 21.6 3 Noroeste 8 Noroeste 0 952.2 -- 51
2020-08-26 09:00:00 18.8 2 Noroeste 5 Noroeste 0 952 -- 56
2020-08-26 08:00:00 16.9 5 Oeste 7 Oeste 0 951.6 -- 63
2020-08-26 07:00:00 18.3 4 Norte 5 Norte 0 951.4 -- 57
2020-08-26 06:00:00 19.5 3 Este 6 Oeste 0 951.2 -- 52
2020-08-26 05:00:00 20.1 5 Sudoeste 6 Oeste 0 951.3 -- 54
2020-08-26 04:00:00 21.6 3 Norte 8 Noroeste 0 950.9 -- 45
2020-08-26 03:00:00 22.5 3 Sudeste 13 Sudeste 0 950.4 -- 44
2020-08-26 02:00:00 24.6 5 Este 11 Nordeste 0 950.2 -- 35
2020-08-26 01:00:00 26 5 Nordeste 17 Nordeste 0 950 -- 32
2020-08-26 00:00:00 26.1 3 Sudoeste 17 Nordeste 0 949.8 -- 32
2020-08-25 23:00:00 28.3 5 Este 12 Este 0 949.3 -- 27
2020-08-25 22:00:00 30 9 Este 15 Nordeste 0 948.4 -- 24
2020-08-25 21:00:00 32 7 Este 26 Nordeste 0 947.4 -- 22
2020-08-25 20:00:00 34.1 18 Nordeste 34 Nordeste 0 946.8 -- 18
2020-08-25 19:00:00 35.7 18 Nordeste 30 Nordeste 0 946.5 -- 17
2020-08-25 18:00:00 37.9 7 Noroeste 30 Noroeste 0 946.6 -- 13
2020-08-25 17:00:00 37.4 12 Sudoeste 28 Oeste 0 946.8 -- 13
2020-08-25 16:00:00 36.6 10 Sudoeste 27 Oeste 0 947.3 -- 18
2020-08-25 15:00:00 35.6 17 Oeste 32 Oeste 0 947.9 -- 18
2020-08-25 14:00:00 34 5 Sudoeste 10 Oeste 0 948.6 -- 20
2020-08-25 13:00:00 30.4 4 Sudoeste 12 Oeste 0 949.3 -- 33
2020-08-25 12:00:00 26.9 3 Oeste 10 Oeste 0 949.8 -- 43
2020-08-25 11:00:00 22.9 4 Sudoeste 8 Sudoeste 0 949.8 -- 46
2020-08-25 10:00:00 19.4 3 Oeste 6 Oeste 0 950 -- 55
2020-08-25 09:00:00 16.7 0 Calma 6 Nordeste 0 949.8 -- 62
2020-08-25 08:00:00 15 5 Nordeste 7 Nordeste 0 949.4 -- 69
2020-08-25 07:00:00 15.7 3 Nordeste 6 Sur 0 949.1 -- 66
2020-08-25 06:00:00 16.2 3 Sudoeste 4 Sudoeste 0 949 -- 64
2020-08-25 05:00:00 17 3 Nordeste 6 Norte 0 949 -- 60
2020-08-25 04:00:00 17.8 0 Calma 6 Sur 0 948.9 -- 59
2020-08-25 03:00:00 18.8 2 Nordeste 8 Sur 0 948.9 -- 54
2020-08-25 02:00:00 19.2 4 Sudoeste 9 Sudoeste 0 949.2 -- 54
2020-08-25 01:00:00 20.8 8 Sur 10 Sudoeste 0 949.1 -- 48
2020-08-25 00:00:00 22.4 2 Nordeste 10 Nordeste 0 949.3 -- 41
2020-08-24 23:00:00 24.2 9 Nordeste 19 Nordeste 0 949.1 -- 37
2020-08-24 22:00:00 24.8 8 Nordeste 18 Nordeste 0 948.5 -- 36
2020-08-24 21:00:00 25.8 15 Nordeste 33 Nordeste 0 947.7 -- 34
2020-08-24 20:00:00 27.9 19 Nordeste 34 Nordeste 0 947.4 -- 31
2020-08-24 19:00:00 28.9 22 Nordeste 32 Nordeste 0 947.4 -- 29
2020-08-24 18:00:00 29.9 17 Nordeste 29 Nordeste 0 947.9 -- 26
2020-08-24 17:00:00 29.8 17 Nordeste 31 Nordeste 0 948.4 -- 27
2020-08-24 16:00:00 29.7 14 Nordeste 28 Nordeste 0 949.2 -- 27
2020-08-24 15:00:00 28.3 20 Nordeste 31 Nordeste 0 949.9 -- 30
2020-08-24 14:00:00 27.8 12 Nordeste 24 Nordeste 0 950.3 -- 29
2020-08-24 13:00:00 25.9 7 Norte 16 Norte 0 951.3 -- 33
2020-08-24 12:00:00 23.4 5 Norte 15 Nordeste 0 952 -- 41
2020-08-24 11:00:00 20.5 4 Noroeste 10 Nordeste 0 952.5 -- 51
2020-08-24 10:00:00 17.6 3 Oeste 7 Sudoeste 0 952.7 -- 61
2020-08-24 09:00:00 15.3 0 Calma 4 Nordeste 0 952.9 -- 69
2020-08-24 08:00:00 13.9 0 Calma 3 Nordeste 0 952.6 -- 73
2020-08-24 07:00:00 13.9 2 Oeste 4 Oeste 0 952.3 -- 73
2020-08-24 06:00:00 14.6 3 Oeste 4 Noroeste 0 952.1 -- 70
2020-08-24 05:00:00 15.2 3 Oeste 4 Oeste 0 952.2 -- 69
2020-08-24 04:00:00 16.3 2 Sudeste 8 Norte 0 952.4 -- 64
2020-08-24 03:00:00 17.2 0 Calma 9 Sur 0 952.3 -- 61
2020-08-24 02:00:00 18.4 4 Sur 9 Este 0 952.6 -- 57
2020-08-24 01:00:00 20.1 8 Sudeste 13 Sur 0 952.6 -- 50
2020-08-24 00:00:00 20.9 2 Sudeste 13 Nordeste 0 952.6 -- 47
2020-08-23 23:00:00 21.9 6 Este 25 Nordeste 0 952.4 -- 44
2020-08-23 22:00:00 23.2 15 Este 33 Nordeste 0 951.8 -- 41
2020-08-23 21:00:00 25.2 21 Nordeste 40 Nordeste 0 950.9 -- 32
2020-08-23 20:00:00 27.3 23 Nordeste 39 Nordeste 0 950.8 -- 26
2020-08-23 19:00:00 28.8 19 Nordeste 39 Nordeste 0 951 -- 23
2020-08-23 18:00:00 29.5 18 Nordeste 32 Este 0 951.3 -- 22
2020-08-23 17:00:00 29.7 19 Nordeste 29 Nordeste 0 951.8 -- 22
2020-08-23 16:00:00 29.3 10 Nordeste 30 Nordeste 0 952.7 -- 24
2020-08-23 15:00:00 28.7 7 Nordeste 26 Nordeste 0 953.2 -- 26
2020-08-23 14:00:00 27.4 9 Norte 21 Nordeste 0 953.8 -- 31
2020-08-23 13:00:00 25.7 7 Norte 15 Nordeste 0 954.8 -- 38
2020-08-23 12:00:00 23.8 3 Sudeste 12 Este 0 955.4 -- 44
2020-08-23 11:00:00 21.6 4 Este 9 Nordeste 0 955.6 -- 52
2020-08-23 10:00:00 19.1 2 Oeste 6 Sudoeste 0 955.8 -- 60
2020-08-23 09:00:00 16.2 2 Oeste 6 Sudoeste 0 955.9 -- 69
2020-08-23 08:00:00 14.1 6 Sudoeste 8 Oeste 0 955.7 -- 76
2020-08-23 07:00:00 14.2 3 Sudoeste 8 Sudoeste 0 955.3 -- 74
2020-08-23 06:00:00 15.5 5 Sudoeste 8 Sudoeste 0 955.1 -- 70
2020-08-23 05:00:00 16.8 3 Sudoeste 5 Sudoeste 0 955.3 -- 66
2020-08-23 04:00:00 17.6 4 Oeste 8 Nordeste 0 955.2 -- 62
2020-08-23 03:00:00 19.3 5 Nordeste 13 Nordeste 0 955.2 -- 58
2020-08-23 02:00:00 20 9 Nordeste 25 Nordeste 0 955.3 -- 54
2020-08-23 01:00:00 20.7 17 Nordeste 31 Nordeste 0 955.2 -- 50
2020-08-23 00:00:00 21.8 17 Nordeste 31 Nordeste 0 954.8 -- 45